sensor_id;sensor_type;location;lat;lon;timestamp;P1;durP1;ratioP1;P2;durP2;ratioP2
48743;SDS011;34538;48.836;9.174;2022-11-15T00:01:14;6.25;;;3.63;;
48743;SDS011;34538;48.836;9.174;2022-11-15T00:04:03;6.93;;;3.88;;
48743;SDS011;34538;48.836;9.174;2022-11-15T00:06:48;7.45;;;4.25;;
48743;SDS011;34538;48.836;9.174;2022-11-15T00:09:34;7.10;;;3.50;;
48743;SDS011;34538;48.836;9.174;2022-11-15T00:12:20;5.93;;;3.08;;
48743;SDS011;34538;48.836;9.174;2022-11-15T00:15:06;5.63;;;3.25;;
48743;SDS011;34538;48.836;9.174;2022-11-15T00:17:52;6.35;;;3.30;;
48743;SDS011;34538;48.836;9.174;2022-11-15T00:20:39;6.80;;;3.42;;
48743;SDS011;34538;48.836;9.174;2022-11-15T00:23:25;7.50;;;3.38;;
48743;SDS011;34538;48.836;9.174;2022-11-15T00:26:11;7.15;;;3.72;;
48743;SDS011;34538;48.836;9.174;2022-11-15T00:28:58;6.30;;;3.58;;
48743;SDS011;34538;48.836;9.174;2022-11-15T00:31:43;7.18;;;3.30;;
48743;SDS011;34538;48.836;9.174;2022-11-15T00:34:29;5.60;;;3.28;;
48743;SDS011;34538;48.836;9.174;2022-11-15T00:37:16;5.88;;;2.80;;
48743;SDS011;34538;48.836;9.174;2022-11-15T00:40:01;5.35;;;2.65;;
48743;SDS011;34538;48.836;9.174;2022-11-15T00:42:47;7.25;;;3.30;;
48743;SDS011;34538;48.836;9.174;2022-11-15T00:45:32;6.15;;;3.00;;
48743;SDS011;34538;48.836;9.174;2022-11-15T00:48:18;7.00;;;3.20;;
48743;SDS011;34538;48.836;9.174;2022-11-15T00:51:04;9.32;;;3.60;;
48743;SDS011;34538;48.836;9.174;2022-11-15T00:53:51;8.15;;;3.75;;
48743;SDS011;34538;48.836;9.174;2022-11-15T00:56:36;6.28;;;3.38;;
48743;SDS011;34538;48.836;9.174;2022-11-15T00:59:22;7.05;;;3.13;;
48743;SDS011;34538;48.836;9.174;2022-11-15T01:02:08;6.38;;;3.20;;
48743;SDS011;34538;48.836;9.174;2022-11-15T01:04:53;7.35;;;3.47;;
48743;SDS011;34538;48.836;9.174;2022-11-15T01:07:39;7.05;;;2.90;;
48743;SDS011;34538;48.836;9.174;2022-11-15T01:10:26;5.47;;;3.47;;
48743;SDS011;34538;48.836;9.174;2022-11-15T01:13:12;7.05;;;2.97;;
48743;SDS011;34538;48.836;9.174;2022-11-15T01:15:57;6.45;;;3.00;;
48743;SDS011;34538;48.836;9.174;2022-11-15T01:18:43;8.73;;;3.63;;
48743;SDS011;34538;48.836;9.174;2022-11-15T01:21:29;4.68;;;2.90;;
48743;SDS011;34538;48.836;9.174;2022-11-15T01:24:15;5.28;;;3.47;;
48743;SDS011;34538;48.836;9.174;2022-11-15T01:27:02;5.70;;;2.90;;
48743;SDS011;34538;48.836;9.174;2022-11-15T01:29:47;9.00;;;3.70;;
48743;SDS011;34538;48.836;9.174;2022-11-15T01:32:33;5.85;;;2.97;;
48743;SDS011;34538;48.836;9.174;2022-11-15T01:35:19;6.60;;;3.17;;
48743;SDS011;34538;48.836;9.174;2022-11-15T01:38:05;9.07;;;2.97;;
48743;SDS011;34538;48.836;9.174;2022-11-15T01:40:51;7.13;;;3.03;;
48743;SDS011;34538;48.836;9.174;2022-11-15T01:43:38;6.90;;;3.40;;
48743;SDS011;34538;48.836;9.174;2022-11-15T01:46:26;8.32;;;3.47;;
48743;SDS011;34538;48.836;9.174;2022-11-15T01:49:14;7.07;;;3.60;;
48743;SDS011;34538;48.836;9.174;2022-11-15T01:52:03;5.60;;;3.00;;
48743;SDS011;34538;48.836;9.174;2022-11-15T01:54:53;8.32;;;3.90;;
48743;SDS011;34538;48.836;9.174;2022-11-15T01:57:43;8.70;;;4.18;;
48743;SDS011;34538;48.836;9.174;2022-11-15T02:00:33;7.38;;;4.00;;
48743;SDS011;34538;48.836;9.174;2022-11-15T02:03:20;7.68;;;3.55;;
48743;SDS011;34538;48.836;9.174;2022-11-15T02:06:10;7.65;;;3.45;;
48743;SDS011;34538;48.836;9.174;2022-11-15T02:08:56;8.25;;;4.03;;
48743;SDS011;34538;48.836;9.174;2022-11-15T02:11:42;7.65;;;4.07;;
48743;SDS011;34538;48.836;9.174;2022-11-15T02:14:28;8.65;;;4.10;;
48743;SDS011;34538;48.836;9.174;2022-11-15T02:17:21;7.57;;;4.00;;
48743;SDS011;34538;48.836;9.174;2022-11-15T02:23:27;8.15;;;3.53;;
48743;SDS011;34538;48.836;9.174;2022-11-15T02:30:17;5.63;;;3.42;;
48743;SDS011;34538;48.836;9.174;2022-11-15T02:33:09;6.35;;;3.67;;
48743;SDS011;34538;48.836;9.174;2022-11-15T02:36:05;7.95;;;3.50;;
48743;SDS011;34538;48.836;9.174;2022-11-15T02:41:45;7.35;;;3.47;;
48743;SDS011;34538;48.836;9.174;2022-11-15T02:44:36;6.80;;;3.33;;
48743;SDS011;34538;48.836;9.174;2022-11-15T02:47:26;7.50;;;3.40;;
48743;SDS011;34538;48.836;9.174;2022-11-15T02:50:16;6.20;;;3.38;;
48743;SDS011;34538;48.836;9.174;2022-11-15T02:53:03;7.80;;;3.33;;
48743;SDS011;34538;48.836;9.174;2022-11-15T02:55:49;4.70;;;3.13;;
48743;SDS011;34538;48.836;9.174;2022-11-15T02:58:48;5.53;;;3.60;;
48743;SDS011;34538;48.836;9.174;2022-11-15T03:01:48;6.28;;;3.80;;
48743;SDS011;34538;48.836;9.174;2022-11-15T03:04:46;10.80;;;4.00;;
48743;SDS011;34538;48.836;9.174;2022-11-15T03:07:40;5.03;;;3.33;;
48743;SDS011;34538;48.836;9.174;2022-11-15T03:10:36;5.70;;;3.47;;
48743;SDS011;34538;48.836;9.174;2022-11-15T03:13:33;9.13;;;3.72;;
48743;SDS011;34538;48.836;9.174;2022-11-15T03:16:24;6.65;;;3.20;;
48743;SDS011;34538;48.836;9.174;2022-11-15T03:19:17;5.70;;;3.53;;
48743;SDS011;34538;48.836;9.174;2022-11-15T03:22:09;6.13;;;3.50;;
48743;SDS011;34538;48.836;9.174;2022-11-15T03:25:00;6.68;;;3.33;;
48743;SDS011;34538;48.836;9.174;2022-11-15T03:27:49;6.70;;;3.60;;
48743;SDS011;34538;48.836;9.174;2022-11-15T03:30:37;7.43;;;3.28;;
48743;SDS011;34538;48.836;9.174;2022-11-15T03:33:24;7.63;;;3.53;;
48743;SDS011;34538;48.836;9.174;2022-11-15T03:36:10;4.90;;;3.30;;
48743;SDS011;34538;48.836;9.174;2022-11-15T03:38:58;5.68;;;3.33;;
48743;SDS011;34538;48.836;9.174;2022-11-15T03:41:49;7.95;;;3.00;;
48743;SDS011;34538;48.836;9.174;2022-11-15T03:44:42;6.07;;;3.33;;
48743;SDS011;34538;48.836;9.174;2022-11-15T03:47:32;6.28;;;3.35;;
48743;SDS011;34538;48.836;9.174;2022-11-15T03:50:23;7.35;;;4.03;;
48743;SDS011;34538;48.836;9.174;2022-11-15T03:53:09;6.30;;;3.70;;
48743;SDS011;34538;48.836;9.174;2022-11-15T03:55:56;5.40;;;3.63;;
48743;SDS011;34538;48.836;9.174;2022-11-15T03:58:42;8.95;;;4.22;;
48743;SDS011;34538;48.836;9.174;2022-11-15T04:01:27;7.78;;;4.03;;
48743;SDS011;34538;48.836;9.174;2022-11-15T04:04:13;9.00;;;4.10;;
48743;SDS011;34538;48.836;9.174;2022-11-15T04:06:58;9.00;;;4.03;;
48743;SDS011;34538;48.836;9.174;2022-11-15T04:09:44;7.07;;;3.97;;
48743;SDS011;34538;48.836;9.174;2022-11-15T04:12:49;8.73;;;4.53;;
48743;SDS011;34538;48.836;9.174;2022-11-15T04:15:35;8.45;;;4.32;;
48743;SDS011;34538;48.836;9.174;2022-11-15T04:18:21;12.25;;;7.30;;
48743;SDS011;34538;48.836;9.174;2022-11-15T04:21:06;13.80;;;8.93;;
48743;SDS011;34538;48.836;9.174;2022-11-15T04:24:10;14.27;;;8.75;;
48743;SDS011;34538;48.836;9.174;2022-11-15T04:26:58;14.70;;;6.90;;
48743;SDS011;34538;48.836;9.174;2022-11-15T04:29:46;11.60;;;5.90;;
48743;SDS011;34538;48.836;9.174;2022-11-15T04:32:32;12.18;;;7.45;;
48743;SDS011;34538;48.836;9.174;2022-11-15T04:35:17;10.25;;;6.40;;
48743;SDS011;34538;48.836;9.174;2022-11-15T04:38:03;14.98;;;7.22;;
48743;SDS011;34538;48.836;9.174;2022-11-15T04:40:50;21.33;;;10.07;;
48743;SDS011;34538;48.836;9.174;2022-11-15T04:43:36;12.82;;;6.38;;
48743;SDS011;34538;48.836;9.174;2022-11-15T04:46:23;12.35;;;6.18;;
48743;SDS011;34538;48.836;9.174;2022-11-15T04:49:10;10.70;;;6.10;;
48743;SDS011;34538;48.836;9.174;2022-11-15T04:51:55;10.23;;;5.18;;
48743;SDS011;34538;48.836;9.174;2022-11-15T04:54:41;9.32;;;4.90;;
48743;SDS011;34538;48.836;9.174;2022-11-15T04:57:26;7.43;;;4.80;;
48743;SDS011;34538;48.836;9.174;2022-11-15T05:00:13;8.05;;;3.92;;
48743;SDS011;34538;48.836;9.174;2022-11-15T05:03:02;8.32;;;4.25;;
48743;SDS011;34538;48.836;9.174;2022-11-15T05:06:06;6.50;;;3.55;;
48743;SDS011;34538;48.836;9.174;2022-11-15T05:08:51;7.80;;;3.83;;
48743;SDS011;34538;48.836;9.174;2022-11-15T05:11:37;8.23;;;3.70;;
48743;SDS011;34538;48.836;9.174;2022-11-15T05:14:22;9.43;;;4.05;;
48743;SDS011;34538;48.836;9.174;2022-11-15T05:17:08;7.75;;;4.15;;
48743;SDS011;34538;48.836;9.174;2022-11-15T05:19:55;12.48;;;6.38;;
48743;SDS011;34538;48.836;9.174;2022-11-15T05:22:40;10.93;;;5.10;;
48743;SDS011;34538;48.836;9.174;2022-11-15T05:25:26;10.00;;;5.43;;
48743;SDS011;34538;48.836;9.174;2022-11-15T05:28:12;7.95;;;4.90;;
48743;SDS011;34538;48.836;9.174;2022-11-15T05:31:00;10.23;;;6.20;;
48743;SDS011;34538;48.836;9.174;2022-11-15T05:33:45;14.35;;;6.80;;
48743;SDS011;34538;48.836;9.174;2022-11-15T05:36:33;11.65;;;5.95;;
48743;SDS011;34538;48.836;9.174;2022-11-15T05:39:20;8.43;;;5.60;;
48743;SDS011;34538;48.836;9.174;2022-11-15T05:42:07;10.05;;;6.22;;
48743;SDS011;34538;48.836;9.174;2022-11-15T05:44:55;10.57;;;5.40;;
48743;SDS011;34538;48.836;9.174;2022-11-15T05:47:42;8.38;;;4.30;;
48743;SDS011;34538;48.836;9.174;2022-11-15T05:50:29;7.03;;;4.38;;
48743;SDS011;34538;48.836;9.174;2022-11-15T05:53:16;7.88;;;3.95;;
48743;SDS011;34538;48.836;9.174;2022-11-15T05:56:07;6.95;;;4.32;;
48743;SDS011;34538;48.836;9.174;2022-11-15T05:58:54;5.63;;;3.45;;
48743;SDS011;34538;48.836;9.174;2022-11-15T06:01:41;9.63;;;4.20;;
48743;SDS011;34538;48.836;9.174;2022-11-15T06:04:27;8.38;;;4.10;;
48743;SDS011;34538;48.836;9.174;2022-11-15T06:07:12;7.10;;;4.05;;
48743;SDS011;34538;48.836;9.174;2022-11-15T06:09:59;9.93;;;4.32;;
48743;SDS011;34538;48.836;9.174;2022-11-15T06:12:45;10.07;;;4.15;;
48743;SDS011;34538;48.836;9.174;2022-11-15T06:15:31;8.65;;;4.75;;
48743;SDS011;34538;48.836;9.174;2022-11-15T06:18:19;7.80;;;4.25;;
48743;SDS011;34538;48.836;9.174;2022-11-15T06:21:04;8.45;;;4.95;;
48743;SDS011;34538;48.836;9.174;2022-11-15T06:23:50;6.78;;;4.10;;
48743;SDS011;34538;48.836;9.174;2022-11-15T06:26:37;6.85;;;4.50;;
48743;SDS011;34538;48.836;9.174;2022-11-15T06:29:22;7.53;;;4.10;;
48743;SDS011;34538;48.836;9.174;2022-11-15T06:32:08;9.75;;;4.68;;
48743;SDS011;34538;48.836;9.174;2022-11-15T06:34:53;7.95;;;4.30;;
48743;SDS011;34538;48.836;9.174;2022-11-15T06:37:39;6.95;;;4.10;;
48743;SDS011;34538;48.836;9.174;2022-11-15T06:40:24;10.68;;;4.05;;
48743;SDS011;34538;48.836;9.174;2022-11-15T06:43:11;7.70;;;4.25;;
48743;SDS011;34538;48.836;9.174;2022-11-15T06:45:58;8.63;;;3.78;;
48743;SDS011;34538;48.836;9.174;2022-11-15T06:48:44;8.70;;;3.88;;
48743;SDS011;34538;48.836;9.174;2022-11-15T06:51:29;6.68;;;3.58;;
48743;SDS011;34538;48.836;9.174;2022-11-15T06:54:15;6.05;;;3.78;;
48743;SDS011;34538;48.836;9.174;2022-11-15T06:57:00;6.03;;;3.42;;
48743;SDS011;34538;48.836;9.174;2022-11-15T06:59:47;7.38;;;4.13;;
48743;SDS011;34538;48.836;9.174;2022-11-15T07:02:33;5.07;;;3.20;;
48743;SDS011;34538;48.836;9.174;2022-11-15T07:05:18;6.50;;;3.85;;
48743;SDS011;34538;48.836;9.174;2022-11-15T07:08:04;8.07;;;3.20;;
48743;SDS011;34538;48.836;9.174;2022-11-15T07:10:49;6.85;;;3.40;;
48743;SDS011;34538;48.836;9.174;2022-11-15T07:13:35;7.03;;;3.25;;
48743;SDS011;34538;48.836;9.174;2022-11-15T07:16:22;7.75;;;2.85;;
48743;SDS011;34538;48.836;9.174;2022-11-15T07:19:08;5.53;;;3.05;;
48743;SDS011;34538;48.836;9.174;2022-11-15T07:21:54;7.03;;;3.28;;
48743;SDS011;34538;48.836;9.174;2022-11-15T07:24:39;5.53;;;2.90;;
48743;SDS011;34538;48.836;9.174;2022-11-15T07:27:25;8.77;;;3.20;;
48743;SDS011;34538;48.836;9.174;2022-11-15T07:30:11;6.82;;;3.20;;
48743;SDS011;34538;48.836;9.174;2022-11-15T07:32:59;7.00;;;3.70;;
48743;SDS011;34538;48.836;9.174;2022-11-15T07:35:45;7.63;;;3.47;;
48743;SDS011;34538;48.836;9.174;2022-11-15T07:38:33;7.60;;;3.70;;
48743;SDS011;34538;48.836;9.174;2022-11-15T07:41:19;8.20;;;3.90;;
48743;SDS011;34538;48.836;9.174;2022-11-15T07:44:05;7.50;;;3.83;;
48743;SDS011;34538;48.836;9.174;2022-11-15T07:46:50;6.72;;;3.25;;
48743;SDS011;34538;48.836;9.174;2022-11-15T07:49:37;6.80;;;3.22;;
48743;SDS011;34538;48.836;9.174;2022-11-15T07:52:23;6.70;;;3.35;;
48743;SDS011;34538;48.836;9.174;2022-11-15T07:55:08;7.82;;;3.42;;
48743;SDS011;34538;48.836;9.174;2022-11-15T07:57:59;5.75;;;3.53;;
48743;SDS011;34538;48.836;9.174;2022-11-15T08:00:45;6.60;;;3.28;;
48743;SDS011;34538;48.836;9.174;2022-11-15T08:03:31;10.10;;;3.35;;
48743;SDS011;34538;48.836;9.174;2022-11-15T08:06:18;9.68;;;3.92;;
48743;SDS011;34538;48.836;9.174;2022-11-15T08:09:04;7.40;;;3.85;;
48743;SDS011;34538;48.836;9.174;2022-11-15T08:11:50;8.45;;;4.28;;
48743;SDS011;34538;48.836;9.174;2022-11-15T08:14:35;7.80;;;3.90;;
48743;SDS011;34538;48.836;9.174;2022-11-15T08:17:21;8.07;;;3.70;;
48743;SDS011;34538;48.836;9.174;2022-11-15T08:20:07;6.13;;;3.88;;
48743;SDS011;34538;48.836;9.174;2022-11-15T08:22:54;11.40;;;4.68;;
48743;SDS011;34538;48.836;9.174;2022-11-15T08:25:40;11.40;;;4.60;;
48743;SDS011;34538;48.836;9.174;2022-11-15T08:28:25;8.43;;;4.03;;
48743;SDS011;34538;48.836;9.174;2022-11-15T08:31:13;8.93;;;4.32;;
48743;SDS011;34538;48.836;9.174;2022-11-15T08:34:00;9.63;;;3.72;;
48743;SDS011;34538;48.836;9.174;2022-11-15T08:36:46;7.68;;;4.50;;
48743;SDS011;34538;48.836;9.174;2022-11-15T08:39:33;10.25;;;4.50;;
48743;SDS011;34538;48.836;9.174;2022-11-15T08:42:19;6.38;;;3.58;;
48743;SDS011;34538;48.836;9.174;2022-11-15T08:45:04;9.32;;;4.03;;
48743;SDS011;34538;48.836;9.174;2022-11-15T08:47:51;8.93;;;4.32;;
48743;SDS011;34538;48.836;9.174;2022-11-15T08:50:37;10.40;;;4.15;;
48743;SDS011;34538;48.836;9.174;2022-11-15T08:53:22;8.93;;;3.95;;
48743;SDS011;34538;48.836;9.174;2022-11-15T08:56:09;6.45;;;3.60;;
48743;SDS011;34538;48.836;9.174;2022-11-15T08:58:57;8.38;;;4.10;;
48743;SDS011;34538;48.836;9.174;2022-11-15T09:01:42;7.68;;;3.72;;
48743;SDS011;34538;48.836;9.174;2022-11-15T09:04:28;7.25;;;4.20;;
48743;SDS011;34538;48.836;9.174;2022-11-15T09:07:13;7.85;;;4.05;;
48743;SDS011;34538;48.836;9.174;2022-11-15T09:09:59;8.68;;;3.60;;
48743;SDS011;34538;48.836;9.174;2022-11-15T09:12:46;10.80;;;4.20;;
48743;SDS011;34538;48.836;9.174;2022-11-15T09:15:32;7.68;;;3.53;;
48743;SDS011;34538;48.836;9.174;2022-11-15T09:18:17;6.55;;;3.38;;
48743;SDS011;34538;48.836;9.174;2022-11-15T09:21:04;7.93;;;4.03;;
48743;SDS011;34538;48.836;9.174;2022-11-15T09:23:50;6.10;;;3.53;;
48743;SDS011;34538;48.836;9.174;2022-11-15T09:26:36;6.80;;;3.92;;
48743;SDS011;34538;48.836;9.174;2022-11-15T09:29:23;7.82;;;3.85;;
48743;SDS011;34538;48.836;9.174;2022-11-15T09:32:09;6.85;;;3.63;;
48743;SDS011;34538;48.836;9.174;2022-11-15T09:34:54;6.90;;;3.80;;
48743;SDS011;34538;48.836;9.174;2022-11-15T09:37:40;10.68;;;3.70;;
48743;SDS011;34538;48.836;9.174;2022-11-15T09:40:26;12.65;;;4.20;;
48743;SDS011;34538;48.836;9.174;2022-11-15T09:43:19;9.88;;;4.65;;
48743;SDS011;34538;48.836;9.174;2022-11-15T09:46:15;9.80;;;3.83;;
48743;SDS011;34538;48.836;9.174;2022-11-15T09:49:09;9.00;;;4.25;;
48743;SDS011;34538;48.836;9.174;2022-11-15T09:51:54;11.07;;;4.22;;
48743;SDS011;34538;48.836;9.174;2022-11-15T09:54:25;9.13;;;4.30;;
48743;SDS011;34538;48.836;9.174;2022-11-15T09:56:55;8.15;;;4.18;;
48743;SDS011;34538;48.836;9.174;2022-11-15T09:59:37;6.47;;;4.20;;
48743;SDS011;34538;48.836;9.174;2022-11-15T10:02:19;7.25;;;3.90;;
48743;SDS011;34538;48.836;9.174;2022-11-15T10:04:59;7.88;;;4.50;;
48743;SDS011;34538;48.836;9.174;2022-11-15T10:07:28;7.10;;;3.97;;
48743;SDS011;34538;48.836;9.174;2022-11-15T10:10:00;10.27;;;4.15;;
48743;SDS011;34538;48.836;9.174;2022-11-15T10:12:34;13.00;;;4.05;;
48743;SDS011;34538;48.836;9.174;2022-11-15T10:15:02;7.55;;;3.85;;
48743;SDS011;34538;48.836;9.174;2022-11-15T10:20:30;8.48;;;4.47;;
48743;SDS011;34538;48.836;9.174;2022-11-15T10:23:04;9.27;;;4.97;;
48743;SDS011;34538;48.836;9.174;2022-11-15T10:25:36;10.88;;;3.97;;
48743;SDS011;34538;48.836;9.174;2022-11-15T10:28:06;12.68;;;4.70;;
48743;SDS011;34538;48.836;9.174;2022-11-15T10:30:39;6.95;;;4.32;;
48743;SDS011;34538;48.836;9.174;2022-11-15T10:33:16;8.70;;;4.40;;
48743;SDS011;34538;48.836;9.174;2022-11-15T10:35:51;9.43;;;3.85;;
48743;SDS011;34538;48.836;9.174;2022-11-15T10:38:55;8.55;;;4.28;;
48743;SDS011;34538;48.836;9.174;2022-11-15T10:41:35;9.02;;;4.60;;
48743;SDS011;34538;48.836;9.174;2022-11-15T10:44:11;9.55;;;4.55;;
48743;SDS011;34538;48.836;9.174;2022-11-15T10:46:47;12.43;;;4.10;;
48743;SDS011;34538;48.836;9.174;2022-11-15T10:49:31;9.65;;;4.20;;
48743;SDS011;34538;48.836;9.174;2022-11-15T10:51:59;8.82;;;3.97;;
48743;SDS011;34538;48.836;9.174;2022-11-15T10:54:28;7.97;;;3.53;;
48743;SDS011;34538;48.836;9.174;2022-11-15T10:57:00;11.63;;;4.63;;
48743;SDS011;34538;48.836;9.174;2022-11-15T10:59:35;7.22;;;3.60;;
48743;SDS011;34538;48.836;9.174;2022-11-15T11:04:56;7.60;;;4.00;;
48743;SDS011;34538;48.836;9.174;2022-11-15T11:07:23;9.27;;;4.03;;
48743;SDS011;34538;48.836;9.174;2022-11-15T11:10:00;11.93;;;4.43;;
48743;SDS011;34538;48.836;9.174;2022-11-15T11:12:29;9.68;;;5.35;;
48743;SDS011;34538;48.836;9.174;2022-11-15T11:14:58;10.20;;;4.40;;
48743;SDS011;34538;48.836;9.174;2022-11-15T11:17:30;9.27;;;3.92;;
48743;SDS011;34538;48.836;9.174;2022-11-15T11:20:09;11.27;;;4.65;;
48743;SDS011;34538;48.836;9.174;2022-11-15T11:22:47;10.95;;;4.03;;
48743;SDS011;34538;48.836;9.174;2022-11-15T11:25:26;11.25;;;4.78;;
48743;SDS011;34538;48.836;9.174;2022-11-15T11:28:02;7.53;;;4.18;;
48743;SDS011;34538;48.836;9.174;2022-11-15T11:30:42;9.68;;;4.50;;
48743;SDS011;34538;48.836;9.174;2022-11-15T11:33:29;10.55;;;4.45;;
48743;SDS011;34538;48.836;9.174;2022-11-15T11:36:06;8.50;;;4.97;;
48743;SDS011;34538;48.836;9.174;2022-11-15T11:38:44;10.90;;;4.13;;
48743;SDS011;34538;48.836;9.174;2022-11-15T11:41:38;8.75;;;3.70;;
48743;SDS011;34538;48.836;9.174;2022-11-15T11:44:24;6.90;;;4.35;;
48743;SDS011;34538;48.836;9.174;2022-11-15T11:46:58;9.50;;;4.78;;
48743;SDS011;34538;48.836;9.174;2022-11-15T11:49:28;10.95;;;4.35;;
48743;SDS011;34538;48.836;9.174;2022-11-15T11:52:02;10.27;;;3.95;;
48743;SDS011;34538;48.836;9.174;2022-11-15T11:54:37;8.40;;;3.25;;
48743;SDS011;34538;48.836;9.174;2022-11-15T11:57:12;6.80;;;3.92;;
48743;SDS011;34538;48.836;9.174;2022-11-15T11:59:44;8.00;;;3.75;;
48743;SDS011;34538;48.836;9.174;2022-11-15T12:02:16;9.20;;;3.50;;
48743;SDS011;34538;48.836;9.174;2022-11-15T12:04:51;7.50;;;4.00;;
48743;SDS011;34538;48.836;9.174;2022-11-15T12:07:25;6.60;;;3.70;;
48743;SDS011;34538;48.836;9.174;2022-11-15T12:09:58;7.30;;;3.80;;
48743;SDS011;34538;48.836;9.174;2022-11-15T12:12:30;8.77;;;3.92;;
48743;SDS011;34538;48.836;9.174;2022-11-15T12:15:09;8.25;;;4.53;;
48743;SDS011;34538;48.836;9.174;2022-11-15T12:17:39;10.45;;;4.00;;
48743;SDS011;34538;48.836;9.174;2022-11-15T12:20:13;10.32;;;3.95;;
48743;SDS011;34538;48.836;9.174;2022-11-15T12:22:44;12.10;;;4.18;;
48743;SDS011;34538;48.836;9.174;2022-11-15T12:25:16;7.75;;;3.75;;
48743;SDS011;34538;48.836;9.174;2022-11-15T12:27:46;8.30;;;4.15;;
48743;SDS011;34538;48.836;9.174;2022-11-15T12:30:19;8.85;;;3.97;;
48743;SDS011;34538;48.836;9.174;2022-11-15T12:32:49;11.95;;;3.88;;
48743;SDS011;34538;48.836;9.174;2022-11-15T12:35:27;7.00;;;3.88;;
48743;SDS011;34538;48.836;9.174;2022-11-15T12:38:00;7.85;;;3.47;;
48743;SDS011;34538;48.836;9.174;2022-11-15T12:40:34;6.60;;;3.70;;
48743;SDS011;34538;48.836;9.174;2022-11-15T12:46:02;12.48;;;5.00;;
48743;SDS011;34538;48.836;9.174;2022-11-15T12:48:48;7.65;;;3.70;;
48743;SDS011;34538;48.836;9.174;2022-11-15T12:51:21;12.65;;;4.85;;
48743;SDS011;34538;48.836;9.174;2022-11-15T12:57:34;8.80;;;4.18;;
48743;SDS011;34538;48.836;9.174;2022-11-15T13:06:05;9.98;;;5.18;;
48743;SDS011;34538;48.836;9.174;2022-11-15T13:08:42;11.15;;;4.80;;
48743;SDS011;34538;48.836;9.174;2022-11-15T13:17:23;11.20;;;3.90;;
48743;SDS011;34538;48.836;9.174;2022-11-15T13:19:53;6.50;;;3.97;;
48743;SDS011;34538;48.836;9.174;2022-11-15T13:22:38;8.65;;;4.10;;
48743;SDS011;34538;48.836;9.174;2022-11-15T13:25:27;9.88;;;4.07;;
48743;SDS011;34538;48.836;9.174;2022-11-15T13:28:18;8.20;;;4.15;;
48743;SDS011;34538;48.836;9.174;2022-11-15T13:30:49;14.40;;;4.45;;
48743;SDS011;34538;48.836;9.174;2022-11-15T13:33:19;10.48;;;3.78;;
48743;SDS011;34538;48.836;9.174;2022-11-15T13:35:50;11.38;;;5.30;;
48743;SDS011;34538;48.836;9.174;2022-11-15T13:38:22;12.02;;;4.45;;
48743;SDS011;34538;48.836;9.174;2022-11-15T13:40:53;6.72;;;3.88;;
48743;SDS011;34538;48.836;9.174;2022-11-15T13:43:25;6.05;;;3.60;;
48743;SDS011;34538;48.836;9.174;2022-11-15T13:46:09;9.27;;;3.22;;
48743;SDS011;34538;48.836;9.174;2022-11-15T13:48:39;7.40;;;2.90;;
48743;SDS011;34538;48.836;9.174;2022-11-15T13:51:09;7.35;;;3.17;;
48743;SDS011;34538;48.836;9.174;2022-11-15T13:53:42;6.30;;;3.13;;
48743;SDS011;34538;48.836;9.174;2022-11-15T13:56:12;6.10;;;3.17;;
48743;SDS011;34538;48.836;9.174;2022-11-15T13:58:40;7.40;;;3.20;;
48743;SDS011;34538;48.836;9.174;2022-11-15T14:01:11;5.50;;;3.35;;
48743;SDS011;34538;48.836;9.174;2022-11-15T14:03:52;6.35;;;3.55;;
48743;SDS011;34538;48.836;9.174;2022-11-15T14:06:22;9.68;;;3.97;;
48743;SDS011;34538;48.836;9.174;2022-11-15T14:09:04;7.05;;;3.22;;
48743;SDS011;34538;48.836;9.174;2022-11-15T14:12:22;6.53;;;3.28;;
48743;SDS011;34538;48.836;9.174;2022-11-15T14:14:50;7.72;;;3.63;;
48743;SDS011;34538;48.836;9.174;2022-11-15T14:17:19;7.07;;;3.58;;
48743;SDS011;34538;48.836;9.174;2022-11-15T14:19:49;8.55;;;3.88;;
48743;SDS011;34538;48.836;9.174;2022-11-15T14:22:18;11.88;;;4.18;;
48743;SDS011;34538;48.836;9.174;2022-11-15T14:25:03;6.72;;;4.15;;
48743;SDS011;34538;48.836;9.174;2022-11-15T14:27:33;9.98;;;4.10;;
48743;SDS011;34538;48.836;9.174;2022-11-15T14:30:00;8.10;;;4.50;;
48743;SDS011;34538;48.836;9.174;2022-11-15T14:32:28;9.73;;;4.28;;
48743;SDS011;34538;48.836;9.174;2022-11-15T14:34:59;7.45;;;4.20;;
48743;SDS011;34538;48.836;9.174;2022-11-15T14:37:28;9.43;;;4.43;;
48743;SDS011;34538;48.836;9.174;2022-11-15T14:39:58;10.57;;;4.43;;
48743;SDS011;34538;48.836;9.174;2022-11-15T14:42:25;13.20;;;4.90;;
48743;SDS011;34538;48.836;9.174;2022-11-15T14:44:52;9.82;;;4.40;;
48743;SDS011;34538;48.836;9.174;2022-11-15T14:47:19;7.63;;;4.32;;
48743;SDS011;34538;48.836;9.174;2022-11-15T14:49:46;12.00;;;5.03;;
48743;SDS011;34538;48.836;9.174;2022-11-15T14:52:23;9.27;;;4.40;;
48743;SDS011;34538;48.836;9.174;2022-11-15T14:54:52;5.55;;;3.80;;
48743;SDS011;34538;48.836;9.174;2022-11-15T14:57:19;7.05;;;3.47;;
48743;SDS011;34538;48.836;9.174;2022-11-15T14:59:46;5.75;;;3.50;;
48743;SDS011;34538;48.836;9.174;2022-11-15T15:02:15;7.07;;;3.83;;
48743;SDS011;34538;48.836;9.174;2022-11-15T15:07:11;6.78;;;2.80;;
48743;SDS011;34538;48.836;9.174;2022-11-15T15:09:40;6.35;;;3.75;;
48743;SDS011;34538;48.836;9.174;2022-11-15T15:12:11;10.43;;;3.28;;
48743;SDS011;34538;48.836;9.174;2022-11-15T15:14:41;9.10;;;3.35;;
48743;SDS011;34538;48.836;9.174;2022-11-15T15:17:08;7.82;;;4.45;;
48743;SDS011;34538;48.836;9.174;2022-11-15T15:19:35;6.38;;;3.30;;
48743;SDS011;34538;48.836;9.174;2022-11-15T15:22:02;5.55;;;3.10;;
48743;SDS011;34538;48.836;9.174;2022-11-15T15:24:29;7.00;;;3.22;;
48743;SDS011;34538;48.836;9.174;2022-11-15T15:26:57;7.80;;;3.00;;
48743;SDS011;34538;48.836;9.174;2022-11-15T15:29:24;6.93;;;3.08;;
48743;SDS011;34538;48.836;9.174;2022-11-15T15:31:51;5.95;;;3.08;;
48743;SDS011;34538;48.836;9.174;2022-11-15T15:34:18;6.38;;;3.40;;
48743;SDS011;34538;48.836;9.174;2022-11-15T15:36:45;6.20;;;3.10;;
48743;SDS011;34538;48.836;9.174;2022-11-15T15:39:11;6.47;;;2.88;;
48743;SDS011;34538;48.836;9.174;2022-11-15T15:41:38;7.70;;;2.90;;
48743;SDS011;34538;48.836;9.174;2022-11-15T15:44:06;7.85;;;3.10;;
48743;SDS011;34538;48.836;9.174;2022-11-15T15:46:33;5.43;;;3.20;;
48743;SDS011;34538;48.836;9.174;2022-11-15T15:49:01;4.88;;;2.67;;
48743;SDS011;34538;48.836;9.174;2022-11-15T15:51:28;5.00;;;2.55;;
48743;SDS011;34538;48.836;9.174;2022-11-15T15:53:54;8.20;;;2.97;;
48743;SDS011;34538;48.836;9.174;2022-11-15T15:56:23;4.53;;;2.83;;
48743;SDS011;34538;48.836;9.174;2022-11-15T15:58:50;4.50;;;2.60;;
48743;SDS011;34538;48.836;9.174;2022-11-15T16:01:19;5.13;;;2.75;;
48743;SDS011;34538;48.836;9.174;2022-11-15T16:03:46;9.30;;;3.22;;
48743;SDS011;34538;48.836;9.174;2022-11-15T16:06:33;5.32;;;2.70;;
48743;SDS011;34538;48.836;9.174;2022-11-15T16:09:03;9.82;;;2.97;;
48743;SDS011;34538;48.836;9.174;2022-11-15T16:11:30;6.97;;;3.38;;
48743;SDS011;34538;48.836;9.174;2022-11-15T16:13:57;6.70;;;3.75;;
48743;SDS011;34538;48.836;9.174;2022-11-15T16:16:25;10.68;;;3.63;;
48743;SDS011;34538;48.836;9.174;2022-11-15T16:18:52;8.13;;;3.50;;
48743;SDS011;34538;48.836;9.174;2022-11-15T16:21:19;5.95;;;3.28;;
48743;SDS011;34538;48.836;9.174;2022-11-15T16:23:46;4.93;;;2.75;;
48743;SDS011;34538;48.836;9.174;2022-11-15T16:26:14;6.38;;;3.42;;
48743;SDS011;34538;48.836;9.174;2022-11-15T16:28:46;8.77;;;3.55;;
48743;SDS011;34538;48.836;9.174;2022-11-15T16:31:13;8.10;;;3.72;;
48743;SDS011;34538;48.836;9.174;2022-11-15T16:33:44;7.80;;;3.75;;
48743;SDS011;34538;48.836;9.174;2022-11-15T16:36:15;6.05;;;3.35;;
48743;SDS011;34538;48.836;9.174;2022-11-15T16:38:46;5.70;;;3.13;;
48743;SDS011;34538;48.836;9.174;2022-11-15T16:41:13;8.90;;;3.30;;
48743;SDS011;34538;48.836;9.174;2022-11-15T16:43:43;8.27;;;3.22;;
48743;SDS011;34538;48.836;9.174;2022-11-15T16:46:13;5.90;;;3.30;;